Time;durP1;ratioP1;P1;durP2;ratioP2;P2;SDS_P1;SDS_P2;PMS_P1;PMS_P2;Temp;Humidity;BMP_temperature;BMP_pressure;BME280_temperature;BME280_humidity;BME280_pressure;Samples;Min_cycle;Max_cycle;Signal;HPM_P1;HPM_P2
2021/11/06 00:03:56;;;;;;;5.10;2.50;;;;;;;;;;10493383;28;20032;-91
2021/11/06 00:08:57;;;;;;;3.65;2.28;;;;;;;;;;10474172;28;20068;-93
2021/11/06 00:13:57;;;;;;;3.58;2.60;;;;;;;;;;10479739;28;20036;-92
2021/11/06 00:18:58;;;;;;;6.38;2.45;;;;;;;;;;10480467;28;20109;-89
2021/11/06 00:23:58;;;;;;;4.97;2.30;;;;;;;;;;10499852;28;20371;-90
2021/11/06 00:28:59;;;;;;;4.20;2.40;;;;;;;;;;10483321;28;20465;-89
2021/11/06 00:34:02;;;;;;;7.53;2.15;;;;;;;;;;10483912;28;21025;-88
2021/11/06 00:39:03;;;;;;;7.63;2.78;;;;;;;;;;10486986;28;20056;-90
2021/11/06 00:44:04;;;;;;;6.50;2.75;;;;;;;;;;10500914;28;20047;-90
2021/11/06 00:49:05;;;;;;;7.85;2.38;;;;;;;;;;10493411;28;20029;-85
2021/11/06 00:54:07;;;;;;;6.47;2.40;;;;;;;;;;10471046;28;20027;-88
2021/11/06 00:59:08;;;;;;;5.75;2.45;;;;;;;;;;10488897;28;20279;-87
2021/11/06 01:04:09;;;;;;;3.55;2.38;;;;;;;;;;10473414;28;20178;-87
2021/11/06 01:09:10;;;;;;;7.25;2.10;;;;;;;;;;10482770;28;20116;-86
2021/11/06 01:14:13;;;;;;;2.90;2.03;;;;;;;;;;10497928;28;20025;-88
2021/11/06 01:19:14;;;;;;;3.00;2.10;;;;;;;;;;10497984;28;20115;-85
2021/11/06 01:24:16;;;;;;;2.47;2.10;;;;;;;;;;10478300;28;20048;-88
2021/11/06 01:29:16;;;;;;;6.65;2.35;;;;;;;;;;10487182;28;20036;-88
2021/11/06 01:34:17;;;;;;;3.17;1.90;;;;;;;;;;10466506;28;20041;-86
2021/11/06 01:39:17;;;;;;;3.67;2.10;;;;;;;;;;10497020;28;20465;-85
2021/11/06 01:44:17;;;;;;;2.72;2.28;;;;;;;;;;10455014;28;1217896;-84
2021/11/06 01:49:21;;;;;;;4.35;2.00;;;;;;;;;;10499339;28;20040;-84
2021/11/06 01:54:25;;;;;;;3.17;1.85;;;;;;;;;;10498077;28;20530;-86
2021/11/06 01:59:26;;;;;;;4.70;2.30;;;;;;;;;;10484382;28;20029;-87
2021/11/06 02:04:26;;;;;;;3.78;1.92;;;;;;;;;;10480890;28;20493;-86
2021/11/06 02:09:26;;;;;;;2.20;1.90;;;;;;;;;;10497816;28;20060;-85
2021/11/06 02:14:27;;;;;;;5.00;1.60;;;;;;;;;;10489440;28;21014;-85
2021/11/06 02:19:29;;;;;;;3.10;2.00;;;;;;;;;;10486150;28;20103;-84
2021/11/06 02:24:30;;;;;;;3.00;1.75;;;;;;;;;;10489790;28;20460;-84
2021/11/06 02:29:32;;;;;;;2.90;2.03;;;;;;;;;;10484136;28;20112;-86
2021/11/06 02:34:33;;;;;;;2.38;1.88;;;;;;;;;;10496842;28;20032;-88
2021/11/06 02:39:34;;;;;;;4.80;1.80;;;;;;;;;;10497079;28;20031;-87
2021/11/06 02:44:35;;;;;;;4.50;2.10;;;;;;;;;;10482429;28;20053;-91
2021/11/06 02:49:35;;;;;;;10.55;1.85;;;;;;;;;;10496028;28;20071;-86
2021/11/06 02:54:37;;;;;;;4.35;2.08;;;;;;;;;;10470446;28;20063;-84
2021/11/06 02:59:37;;;;;;;2.45;1.50;;;;;;;;;;10473129;28;20068;-85
2021/11/06 03:04:39;;;;;;;2.40;1.50;;;;;;;;;;10487620;28;20056;-87
2021/11/06 03:09:41;;;;;;;2.00;1.50;;;;;;;;;;10474625;28;20032;-86
2021/11/06 03:14:43;;;;;;;4.18;2.15;;;;;;;;;;10476704;28;20029;-89
2021/11/06 03:19:43;;;;;;;1.80;1.70;;;;;;;;;;10456730;28;20389;-87
2021/11/06 03:24:44;;;;;;;2.95;1.80;;;;;;;;;;10487486;28;20029;-88
2021/11/06 03:29:45;;;;;;;2.55;1.95;;;;;;;;;;10506930;28;20462;-92
2021/11/06 03:34:46;;;;;;;2.83;1.90;;;;;;;;;;10478862;28;20532;-92
2021/11/06 03:39:47;;;;;;;2.60;1.73;;;;;;;;;;10486667;28;20082;-90
2021/11/06 03:44:48;;;;;;;2.28;1.70;;;;;;;;;;10502843;28;20054;-89
2021/11/06 03:49:49;;;;;;;5.03;1.63;;;;;;;;;;10502309;28;20035;-88
2021/11/06 03:54:49;;;;;;;1.40;1.30;;;;;;;;;;10489455;28;20034;-87
2021/11/06 03:59:51;;;;;;;2.15;1.63;;;;;;;;;;10499624;28;20470;-88
2021/11/06 04:04:52;;;;;;;2.97;1.80;;;;;;;;;;10501271;28;20036;-85
2021/11/06 04:09:54;;;;;;;2.08;1.60;;;;;;;;;;10503097;28;20044;-85
2021/11/06 04:14:54;;;;;;;1.63;1.45;;;;;;;;;;10502089;28;20370;-87
2021/11/06 04:19:55;;;;;;;3.78;2.05;;;;;;;;;;10500984;28;20033;-83
2021/11/06 04:24:56;;;;;;;1.42;1.25;;;;;;;;;;10502331;28;20025;-86
2021/11/06 04:29:57;;;;;;;2.10;1.45;;;;;;;;;;10498379;28;20024;-85
2021/11/06 04:34:57;;;;;;;1.80;1.70;;;;;;;;;;10502130;28;20031;-85
2021/11/06 04:39:58;;;;;;;2.83;1.60;;;;;;;;;;10502063;28;20528;-85
2021/11/06 04:44:59;;;;;;;2.08;1.63;;;;;;;;;;10500590;28;20090;-86
2021/11/06 04:50:00;;;;;;;1.33;1.23;;;;;;;;;;10500808;28;20037;-84
2021/11/06 04:55:03;;;;;;;1.40;1.30;;;;;;;;;;10500035;28;20381;-86
2021/11/06 05:00:06;;;;;;;1.42;1.33;;;;;;;;;;10500513;28;20463;-85
2021/11/06 05:05:08;;;;;;;2.03;1.42;;;;;;;;;;10494021;28;20533;-87
2021/11/06 05:10:09;;;;;;;1.90;1.60;;;;;;;;;;10493023;28;20355;-86
2021/11/06 05:15:10;;;;;;;3.83;1.50;;;;;;;;;;10494738;28;20025;-86
2021/11/06 05:20:11;;;;;;;1.50;1.40;;;;;;;;;;10489818;28;20026;-90
2021/11/06 05:25:12;;;;;;;1.50;1.30;;;;;;;;;;10495847;28;20033;-89
2021/11/06 05:30:13;;;;;;;2.90;1.70;;;;;;;;;;10496614;28;20108;-88
2021/11/06 05:35:15;;;;;;;2.40;1.50;;;;;;;;;;10485987;28;20029;-86
2021/11/06 05:40:16;;;;;;;1.40;1.30;;;;;;;;;;10484408;28;20025;-90
2021/11/06 05:45:17;;;;;;;1.75;1.35;;;;;;;;;;10486140;28;20128;-87
2021/11/06 05:50:17;;;;;;;1.60;1.40;;;;;;;;;;10479470;28;20036;-87
2021/11/06 05:55:18;;;;;;;1.30;1.20;;;;;;;;;;10469985;28;20036;-90
2021/11/06 06:00:20;;;;;;;2.53;1.30;;;;;;;;;;10496882;28;20466;-86
2021/11/06 06:05:20;;;;;;;2.75;2.50;;;;;;;;;;10497423;28;20046;-89
2021/11/06 06:10:20;;;;;;;2.47;2.30;;;;;;;;;;10497542;28;20470;-82
2021/11/06 06:15:21;;;;;;;6.45;5.97;;;;;;;;;;10496304;28;20552;-86
2021/11/06 06:20:22;;;;;;;6.60;6.00;;;;;;;;;;10479877;28;20114;-83
2021/11/06 06:25:24;;;;;;;5.03;4.72;;;;;;;;;;10496107;28;20029;-89
2021/11/06 06:30:24;;;;;;;2.42;2.22;;;;;;;;;;10480514;28;20031;-89
2021/11/06 06:35:27;;;;;;;1.30;1.20;;;;;;;;;;10496040;28;20028;-89
2021/11/06 06:40:27;;;;;;;2.45;1.60;;;;;;;;;;10473290;28;20484;-91
2021/11/06 06:45:28;;;;;;;1.33;1.23;;;;;;;;;;10479602;28;20044;-89
2021/11/06 06:50:29;;;;;;;1.67;1.27;;;;;;;;;;10482609;28;20119;-90
2021/11/06 06:55:29;;;;;;;2.80;1.25;;;;;;;;;;10472813;28;20047;-84
2021/11/06 07:00:29;;;;;;;1.57;1.30;;;;;;;;;;10495847;28;20032;-85
2021/11/06 07:05:30;;;;;;;4.10;1.50;;;;;;;;;;10495977;28;20444;-85
2021/11/06 07:10:32;;;;;;;1.80;1.30;;;;;;;;;;10499851;28;20036;-82
2021/11/06 07:15:32;;;;;;;1.52;1.42;;;;;;;;;;10505254;28;20029;-86
2021/11/06 07:20:33;;;;;;;1.23;1.10;;;;;;;;;;10503217;28;20090;-86
2021/11/06 07:25:37;;;;;;;1.40;1.03;;;;;;;;;;10502199;28;21027;-84
2021/11/06 07:30:38;;;;;;;1.20;1.10;;;;;;;;;;10504279;28;20446;-80
2021/11/06 07:35:40;;;;;;;1.30;1.20;;;;;;;;;;10502270;28;20044;-81
2021/11/06 07:40:42;;;;;;;1.75;1.33;;;;;;;;;;10496512;28;20017;-82
2021/11/06 07:45:44;;;;;;;1.60;1.30;;;;;;;;;;10555082;22;20051;-83
2021/11/06 07:50:44;;;;;;;1.30;1.20;;;;;;;;;;10499981;28;20047;-83
2021/11/06 07:55:45;;;;;;;1.05;1.05;;;;;;;;;;10501740;28;20020;-83
2021/11/06 08:00:45;;;;;;;1.50;1.40;;;;;;;;;;10501518;28;20080;-84
2021/11/06 08:05:46;;;;;;;1.77;1.67;;;;;;;;;;10500166;28;20450;-85
2021/11/06 08:10:46;;;;;;;1.60;1.50;;;;;;;;;;10500283;28;20036;-84
2021/11/06 08:15:47;;;;;;;2.15;1.50;;;;;;;;;;10500115;28;20025;-87
2021/11/06 08:20:47;;;;;;;1.88;1.77;;;;;;;;;;10499836;28;20123;-85
2021/11/06 08:25:48;;;;;;;5.25;1.63;;;;;;;;;;10499614;28;20054;-84
2021/11/06 08:30:48;;;;;;;7.90;1.65;;;;;;;;;;10500555;28;20021;-82
2021/11/06 08:35:49;;;;;;;6.47;2.33;;;;;;;;;;10499727;28;20036;-83
2021/11/06 08:40:50;;;;;;;12.13;2.50;;;;;;;;;;10496482;28;20020;-83
2021/11/06 08:45:51;;;;;;;14.77;2.40;;;;;;;;;;10499723;28;20994;-81
2021/11/06 08:50:51;;;;;;;17.13;2.95;;;;;;;;;;10499840;28;20036;-82
2021/11/06 08:55:52;;;;;;;16.83;2.97;;;;;;;;;;10495844;28;20048;-81
2021/11/06 09:00:53;;;;;;;13.05;3.03;;;;;;;;;;10499078;28;20381;-81
2021/11/06 09:05:54;;;;;;;8.15;2.55;;;;;;;;;;10496076;28;20036;-81
2021/11/06 09:10:57;;;;;;;9.73;2.05;;;;;;;;;;10497946;28;20028;-81
2021/11/06 09:15:58;;;;;;;8.23;2.47;;;;;;;;;;10497977;28;20032;-82
2021/11/06 09:20:59;;;;;;;11.32;2.17;;;;;;;;;;10498524;28;20033;-82
2021/11/06 09:26:00;;;;;;;4.50;2.15;;;;;;;;;;10498625;28;20032;-82
2021/11/06 09:31:00;;;;;;;15.88;2.42;;;;;;;;;;10496318;28;20044;-81
2021/11/06 09:36:00;;;;;;;10.57;2.13;;;;;;;;;;10492605;28;20081;-81
2021/11/06 09:41:06;;;;;;;8.83;2.30;;;;;;;;;;10495226;28;20119;-83
2021/11/06 09:46:09;;;;;;;15.88;2.97;;;;;;;;;;10492816;28;20454;-81
2021/11/06 09:51:10;;;;;;;8.27;2.22;;;;;;;;;;10493957;28;20024;-81
2021/11/06 09:56:13;;;;;;;10.70;2.28;;;;;;;;;;10496747;28;20104;-82
2021/11/06 10:01:14;;;;;;;12.93;2.97;;;;;;;;;;10494908;28;20115;-82
2021/11/06 10:06:22;;;;;;;10.82;2.67;;;;;;;;;;10499148;28;20438;-83
2021/11/06 10:11:28;;;;;;;13.27;2.40;;;;;;;;;;10501008;28;20039;-84
2021/11/06 10:16:32;;;;;;;12.20;2.45;;;;;;;;;;10500157;28;20024;-83
2021/11/06 10:21:34;;;;;;;4.65;2.47;;;;;;;;;;10501187;28;20123;-81
2021/11/06 10:26:34;;;;;;;7.05;2.08;;;;;;;;;;10498690;28;20025;-82
2021/11/06 10:31:55;;;;;;;8.32;2.38;;;;;;;;;;10486480;28;20029;-83
2021/11/06 10:37:11;;;;;;;15.15;2.35;;;;;;;;;;10493037;28;20066;-83
2021/11/06 10:42:14;;;;;;;8.98;2.47;;;;;;;;;;10492748;28;20028;-83
2021/11/06 10:47:14;;;;;;;6.72;1.88;;;;;;;;;;10491304;28;20056;-83
2021/11/06 10:52:19;;;;;;;5.57;1.95;;;;;;;;;;10484523;28;20127;-83
2021/11/06 10:57:24;;;;;;;4.45;2.28;;;;;;;;;;10479599;28;20032;-81
2021/11/06 11:02:24;;;;;;;5.13;1.95;;;;;;;;;;10498266;28;20124;-82
2021/11/06 11:07:25;;;;;;;3.67;2.27;;;;;;;;;;10495987;28;20124;-81
2021/11/06 11:12:25;;;;;;;3.93;1.70;;;;;;;;;;10490248;28;20503;-81
2021/11/06 11:17:42;;;;;;;2.78;1.80;;;;;;;;;;10497476;28;20119;-81
2021/11/06 11:22:42;;;;;;;7.43;2.08;;;;;;;;;;10490872;28;20474;-81
2021/11/06 11:27:42;;;;;;;7.13;2.03;;;;;;;;;;10484259;28;20033;-81
2021/11/06 11:32:43;;;;;;;3.90;1.80;;;;;;;;;;10486919;28;20111;-82
2021/11/06 11:37:43;;;;;;;9.50;2.20;;;;;;;;;;10487044;28;20450;-82
2021/11/06 11:43:11;;;;;;;4.90;2.07;;;;;;;;;;10474797;28;20438;-82
2021/11/06 11:48:14;;;;;;;7.03;2.38;;;;;;;;;;10482545;28;20543;-82
2021/11/06 11:53:26;;;;;;;6.07;2.17;;;;;;;;;;10488121;28;20028;-82
2021/11/06 11:58:39;;;;;;;11.10;2.33;;;;;;;;;;10498617;28;20064;-83
2021/11/06 12:03:45;;;;;;;9.85;2.60;;;;;;;;;;10501588;28;20115;-84
2021/11/06 12:08:46;;;;;;;6.93;2.70;;;;;;;;;;10500317;28;20025;-84
2021/11/06 12:13:50;;;;;;;5.70;2.65;;;;;;;;;;10500912;28;20382;-84
2021/11/06 12:18:59;;;;;;;6.95;3.28;;;;;;;;;;10499993;28;20028;-84
2021/11/06 12:24:08;;;;;;;9.40;2.72;;;;;;;;;;10498070;28;20024;-84
2021/11/06 12:29:11;;;;;;;5.97;2.85;;;;;;;;;;10498632;28;20508;-84
2021/11/06 12:34:29;;;;;;;7.03;3.03;;;;;;;;;;10501286;28;20223;-85
2021/11/06 12:39:49;;;;;;;12.05;3.00;;;;;;;;;;10489052;28;20059;-83
2021/11/06 12:45:06;;;;;;;4.72;2.40;;;;;;;;;;10487199;28;20517;-85
2021/11/06 12:50:19;;;;;;;7.25;2.65;;;;;;;;;;10492272;28;20028;-85
2021/11/06 12:55:20;;;;;;;6.43;2.50;;;;;;;;;;10470637;28;20056;-86
2021/11/06 13:00:35;;;;;;;5.68;2.97;;;;;;;;;;10486709;28;20036;-83
2021/11/06 13:05:46;;;;;;;13.35;2.58;;;;;;;;;;10467406;28;20523;-94
2021/11/06 13:10:48;;;;;;;6.10;2.25;;;;;;;;;;10471863;28;20067;-92
2021/11/06 13:15:51;;;;;;;6.30;2.00;;;;;;;;;;10499757;28;20036;-91
2021/11/06 13:20:53;;;;;;;11.38;2.67;;;;;;;;;;10500525;28;20047;-96
2021/11/06 13:25:58;;;;;;;7.63;2.40;;;;;;;;;;10476602;28;20033;-96
2021/11/06 13:31:04;;;;;;;6.18;2.00;;;;;;;;;;10480997;28;20067;-91
2021/11/06 13:36:10;;;;;;;8.75;2.47;;;;;;;;;;10490375;28;20032;-92
2021/11/06 13:41:13;;;;;;;4.70;2.22;;;;;;;;;;10479687;28;20047;-92
2021/11/06 13:46:19;;;;;;;10.35;2.35;;;;;;;;;;10496730;28;20089;-88
2021/11/06 13:51:21;;;;;;;8.20;2.50;;;;;;;;;;10497398;28;20028;-87
2021/11/06 13:56:26;;;;;;;3.95;2.42;;;;;;;;;;10495242;28;20028;-86
2021/11/06 14:01:27;;;;;;;13.27;2.28;;;;;;;;;;10492742;28;20455;-84
2021/11/06 14:06:38;;;;;;;7.53;2.15;;;;;;;;;;10496325;28;20072;-84
2021/11/06 14:11:49;;;;;;;2.22;1.60;;;;;;;;;;10498067;28;20067;-84
2021/11/06 14:17:22;;;;;;;8.55;2.17;;;;;;;;;;10496953;28;20024;-84
2021/11/06 14:22:33;;;;;;;6.70;2.00;;;;;;;;;;10476133;28;20059;-84
2021/11/06 14:27:33;;;;;;;8.10;2.00;;;;;;;;;;10499959;28;20034;-84
2021/11/06 14:32:36;;;;;;;3.50;1.75;;;;;;;;;;10498119;28;20036;-84
2021/11/06 14:37:37;;;;;;;7.00;1.90;;;;;;;;;;10498254;28;20037;-84
2021/11/06 14:42:41;;;;;;;8.07;2.05;;;;;;;;;;10497374;28;20042;-84
2021/11/06 14:47:42;;;;;;;3.60;1.70;;;;;;;;;;10497123;28;20045;-84
2021/11/06 14:52:42;;;;;;;7.60;1.88;;;;;;;;;;10496532;28;20032;-84
2021/11/06 14:57:45;;;;;;;2.85;1.50;;;;;;;;;;10496030;28;20347;-84
2021/11/06 15:02:59;;;;;;;4.72;1.90;;;;;;;;;;10496618;28;20050;-84
2021/11/06 15:08:02;;;;;;;6.18;1.80;;;;;;;;;;10490318;28;20458;-84
2021/11/06 15:13:03;;;;;;;7.32;1.60;;;;;;;;;;10474696;28;20081;-85
2021/11/06 15:18:07;;;;;;;10.60;1.88;;;;;;;;;;10494897;28;20121;-85
2021/11/06 15:23:13;;;;;;;3.10;1.58;;;;;;;;;;10495866;28;20036;-84
2021/11/06 15:28:15;;;;;;;3.25;1.55;;;;;;;;;;10495402;28;20190;-84
2021/11/06 15:33:16;;;;;;;4.28;1.50;;;;;;;;;;10497188;28;20474;-85
2021/11/06 15:38:16;;;;;;;4.07;1.27;;;;;;;;;;10501289;28;20037;-85
2021/11/06 15:43:17;;;;;;;4.70;1.85;;;;;;;;;;10497277;28;20029;-84
2021/11/06 15:48:18;;;;;;;5.07;1.60;;;;;;;;;;10502619;28;20087;-85
2021/11/06 15:53:19;;;;;;;3.53;1.55;;;;;;;;;;10502897;28;20032;-85
2021/11/06 15:58:19;;;;;;;3.30;1.80;;;;;;;;;;10503067;28;20025;-85
2021/11/06 16:03:19;;;;;;;5.37;1.67;;;;;;;;;;10502654;28;20483;-84
2021/11/06 16:08:20;;;;;;;3.63;2.03;;;;;;;;;;10502310;28;20570;-84
2021/11/06 16:13:23;;;;;;;1.83;1.47;;;;;;;;;;10501349;28;20032;-85
2021/11/06 16:18:28;;;;;;;2.72;1.45;;;;;;;;;;10502715;28;20025;-85
2021/11/06 16:23:28;;;;;;;1.50;1.40;;;;;;;;;;10501385;28;20428;-85
2021/11/06 16:28:30;;;;;;;3.50;1.30;;;;;;;;;;10501802;28;20024;-85
2021/11/06 16:33:30;;;;;;;4.75;1.73;;;;;;;;;;10501496;28;20466;-85
2021/11/06 16:38:31;;;;;;;3.85;1.80;;;;;;;;;;10500444;28;20047;-84
2021/11/06 16:43:34;;;;;;;3.97;1.38;;;;;;;;;;10499446;28;20032;-85
2021/11/06 16:48:35;;;;;;;5.15;1.88;;;;;;;;;;10504286;28;20067;-85
2021/11/06 16:53:36;;;;;;;3.88;1.90;;;;;;;;;;10502572;28;20037;-85
2021/11/06 16:58:37;;;;;;;2.05;1.42;;;;;;;;;;10507366;28;20029;-85
2021/11/06 17:03:39;;;;;;;4.82;1.70;;;;;;;;;;10478944;28;20378;-85
2021/11/06 17:13:48;;;;;;;3.03;1.80;;;;;;;;;;10498839;28;20050;-85
2021/11/06 17:18:50;;;;;;;7.93;1.90;;;;;;;;;;10498964;28;20039;-85
2021/11/06 17:23:52;;;;;;;2.97;1.88;;;;;;;;;;10498410;28;20036;-84
2021/11/06 17:28:52;;;;;;;4.88;1.80;;;;;;;;;;10495956;28;20043;-84
2021/11/06 17:33:53;;;;;;;7.28;1.67;;;;;;;;;;10499063;28;20351;-84
2021/11/06 17:38:53;;;;;;;2.80;1.95;;;;;;;;;;10488443;28;20031;-84
2021/11/06 17:43:54;;;;;;;4.93;1.80;;;;;;;;;;10494871;28;20375;-84
2021/11/06 17:48:56;;;;;;;3.28;1.90;;;;;;;;;;10495367;28;21058;-85
2021/11/06 17:54:03;;;;;;;5.20;2.25;;;;;;;;;;10495241;28;20028;-84
2021/11/06 17:59:04;;;;;;;5.47;2.60;;;;;;;;;;10494238;28;20042;-84
2021/11/06 18:04:06;;;;;;;3.33;2.20;;;;;;;;;;10494273;28;20159;-86
2021/11/06 18:09:08;;;;;;;4.88;2.25;;;;;;;;;;10497093;28;20028;-85
2021/11/06 18:14:08;;;;;;;4.90;2.10;;;;;;;;;;10493837;28;20036;-85
2021/11/06 18:19:09;;;;;;;7.93;2.20;;;;;;;;;;10488598;28;20086;-85
2021/11/06 18:24:10;;;;;;;11.03;2.50;;;;;;;;;;10493072;28;20115;-84
2021/11/06 18:29:10;;;;;;;13.50;2.63;;;;;;;;;;10490798;28;20374;-84
2021/11/06 18:34:11;;;;;;;6.40;2.60;;;;;;;;;;10493653;28;20036;-84
2021/11/06 18:39:12;;;;;;;6.20;2.47;;;;;;;;;;10490512;28;20082;-83
2021/11/06 18:44:14;;;;;;;8.43;2.47;;;;;;;;;;10493445;28;20062;-83
2021/11/06 18:49:15;;;;;;;4.97;2.38;;;;;;;;;;10484358;28;20524;-85
2021/11/06 18:54:17;;;;;;;23.88;3.42;;;;;;;;;;10494940;28;20029;-85
2021/11/06 18:59:18;;;;;;;16.67;4.10;;;;;;;;;;10493706;28;20037;-85
2021/11/06 19:04:18;;;;;;;17.33;3.60;;;;;;;;;;10492032;28;20482;-83
2021/11/06 19:09:18;;;;;;;16.87;4.07;;;;;;;;;;10503555;28;20040;-83
2021/11/06 19:14:19;;;;;;;18.30;3.60;;;;;;;;;;10504654;28;20489;-83
2021/11/06 19:19:21;;;;;;;12.15;3.35;;;;;;;;;;10499491;28;20459;-83
2021/11/06 19:24:27;;;;;;;7.80;3.35;;;;;;;;;;10502409;28;20033;-83
2021/11/06 19:29:27;;;;;;;15.13;4.35;;;;;;;;;;10499065;28;20028;-83
2021/11/06 19:34:28;;;;;;;9.02;3.13;;;;;;;;;;10501204;28;20044;-82
2021/11/06 19:39:28;;;;;;;9.50;2.78;;;;;;;;;;10502157;28;20059;-88
2021/11/06 19:44:29;;;;;;;7.45;3.10;;;;;;;;;;10489155;22;20450;-86
2021/11/06 19:49:29;;;;;;;10.80;3.30;;;;;;;;;;10414706;28;20034;-88
2021/11/06 19:54:30;;;;;;;8.85;3.13;;;;;;;;;;10414789;28;20037;-87
2021/11/06 19:59:30;;;;;;;10.90;2.58;;;;;;;;;;10423558;28;20049;-84
2021/11/06 20:04:31;;;;;;;10.68;3.63;;;;;;;;;;10418469;28;20037;-83
2021/11/06 20:09:31;;;;;;;8.80;3.00;;;;;;;;;;10438505;28;20051;-84
2021/11/06 20:14:32;;;;;;;6.97;2.75;;;;;;;;;;10420381;28;20498;-82
2021/11/06 20:19:33;;;;;;;12.23;3.45;;;;;;;;;;10424437;28;20029;-81
2021/11/06 20:24:34;;;;;;;9.57;2.77;;;;;;;;;;10426437;28;20414;-83
2021/11/06 20:29:35;;;;;;;9.77;3.45;;;;;;;;;;10426554;28;20462;-83
2021/11/06 20:34:36;;;;;;;19.35;5.10;;;;;;;;;;10426278;28;20083;-87
2021/11/06 20:39:37;;;;;;;12.82;3.92;;;;;;;;;;10393625;28;20052;-88
2021/11/06 20:44:40;;;;;;;24.90;4.35;;;;;;;;;;10444541;28;20041;-87
2021/11/06 20:49:41;;;;;;;14.70;4.30;;;;;;;;;;10432291;28;20070;-88
2021/11/06 20:54:41;;;;;;;11.57;2.83;;;;;;;;;;10417877;28;20040;-87
2021/11/06 20:59:42;;;;;;;11.43;3.43;;;;;;;;;;10411340;28;20025;-88
2021/11/06 21:04:43;;;;;;;8.25;3.42;;;;;;;;;;10416916;28;20438;-86
2021/11/06 21:20:04;;;;;;;35.75;4.90;;;;;;;;;;10419227;28;20029;-86
2021/11/06 21:25:07;;;;;;;15.73;3.80;;;;;;;;;;10419490;28;20460;-85
2021/11/06 21:30:08;;;;;;;17.70;4.28;;;;;;;;;;10407916;28;20041;-85
2021/11/06 21:35:12;;;;;;;9.77;4.32;;;;;;;;;;10412599;28;20455;-86
2021/11/06 21:40:16;;;;;;;12.60;3.78;;;;;;;;;;10414817;28;20121;-85
2021/11/06 21:45:18;;;;;;;10.75;3.65;;;;;;;;;;10404619;28;20037;-85
2021/11/06 21:50:21;;;;;;;19.73;3.78;;;;;;;;;;10416148;28;20030;-86
2021/11/06 21:55:24;;;;;;;11.15;4.00;;;;;;;;;;10390246;28;20404;-85
2021/11/06 22:00:27;;;;;;;8.93;3.50;;;;;;;;;;10401180;28;20030;-85
2021/11/06 22:05:29;;;;;;;8.48;3.78;;;;;;;;;;10413365;28;20184;-86
2021/11/06 22:10:31;;;;;;;7.28;3.60;;;;;;;;;;10413514;28;20041;-86
2021/11/06 22:15:32;;;;;;;7.65;3.55;;;;;;;;;;10426888;28;20030;-86
2021/11/06 22:20:34;;;;;;;12.93;3.63;;;;;;;;;;10415067;28;20041;-86
2021/11/06 22:25:35;;;;;;;11.27;3.30;;;;;;;;;;10414931;28;20029;-85
2021/11/06 22:30:36;;;;;;;13.50;3.88;;;;;;;;;;10413301;28;20412;-85
2021/11/06 22:35:40;;;;;;;10.18;3.42;;;;;;;;;;10416580;28;20391;-86
2021/11/06 22:40:41;;;;;;;6.57;3.80;;;;;;;;;;10415332;28;20399;-86
2021/11/06 22:45:42;;;;;;;11.85;3.70;;;;;;;;;;10420516;28;20191;-86
2021/11/06 22:50:47;;;;;;;8.65;3.67;;;;;;;;;;10409253;28;20368;-86
2021/11/06 22:55:49;;;;;;;12.88;4.10;;;;;;;;;;10394456;28;20025;-86
2021/11/06 23:01:03;;;;;;;7.00;3.25;;;;;;;;;;10416686;28;20057;-87
2021/11/06 23:06:10;;;;;;;5.88;2.97;;;;;;;;;;10400113;28;20042;-85
2021/11/06 23:11:13;;;;;;;10.27;3.50;;;;;;;;;;10404836;28;20448;-86
2021/11/06 23:16:16;;;;;;;7.13;3.58;;;;;;;;;;10418401;28;20030;-86
2021/11/06 23:21:18;;;;;;;9.77;3.70;;;;;;;;;;10403783;28;20124;-86
2021/11/06 23:26:20;;;;;;;6.70;3.58;;;;;;;;;;10419111;28;20112;-86
2021/11/06 23:31:20;;;;;;;6.80;3.53;;;;;;;;;;10407976;28;20029;-86
2021/11/06 23:36:21;;;;;;;6.68;3.13;;;;;;;;;;10420795;28;20032;-86
2021/11/06 23:41:22;;;;;;;9.15;3.33;;;;;;;;;;10417920;28;20029;-86
2021/11/06 23:46:23;;;;;;;9.52;3.35;;;;;;;;;;10412859;28;20052;-86
2021/11/06 23:51:34;;;;;;;5.20;3.22;;;;;;;;;;10412577;28;20041;-86
2021/11/06 23:56:39;;;;;;;7.75;3.25;;;;;;;;;;10410204;28;20125;-86
